Flight Track Log - Related Links

Times and Time Zones

All times are in EST time to prevent confusion due to time zone crossing. See the SKW7363 flight status page for this flight to view local times or setup timezone preferences in your user account.

Time Position Orientation Groundspeed Altitude Reporting Facility
EST Latitude Longitude Course Direction KTS MPH feet Rate Location/Type
Thu 11:13:28 PM 40.7864 -111.9975 201° Southwest 148 170 4,700  Level Salt Lake Center
Thu 11:14:07 PM 40.7628 -112.0097 201° Southwest 149 171 6,300 2,020 Climbing Salt Lake Center
Thu 11:15:09 PM 40.7728 -112.0703 282° West 172 198 8,100 1,659 Climbing Salt Lake Center
Thu 11:16:10 PM 40.7900 -112.1392 288° West 197 227 9,700 1,574 Climbing Salt Lake Center
Thu 11:17:11 PM 40.8331 -112.1931 317° Northwest 212 244 11,300 1,610 Climbing Salt Lake Center
Thu 11:18:13 PM 40.8767 -112.2497 316° Northwest 218 251 13,000 1,317 Climbing Salt Lake Center
Thu 11:19:14 PM 40.9308 -112.2969 327° Northwest 232 267 14,000 976 Climbing Salt Lake Center
Thu 11:20:16 PM 40.9892 -112.3492 326° Northwest 251 289 15,000 1,366 Climbing Salt Lake Center
Thu 11:21:17 PM 41.0414 -112.3958 326° Northwest 223 257 16,800 1,475 Climbing Salt Lake Center
Thu 11:22:18 PM 41.0897 -112.4428 324° Northwest 215 247 18,000 738 Climbing Salt Lake Center
Thu 11:23:19 PM 41.1431 -112.4925 325° Northwest 235 270 18,300 780 Climbing Salt Lake Center
Thu 11:24:21 PM 41.2114 -112.5539 326° Northwest 246 283 19,600 829 Climbing Salt Lake Center
Thu 11:25:22 PM 41.2681 -112.6075 325° Northwest 251 289 20,000 197 Climbing Salt Lake Center
Thu 11:26:23 PM 41.3225 -112.6817 314° West 278 320 20,000  Level Salt Lake Center
Thu 11:27:25 PM 41.3750 -112.7606 312° West 285 328 20,000  Level Salt Lake Center
Thu 11:28:26 PM 41.4414 -112.8181 327° Northwest 282 325 20,000  Level Salt Lake Center
Thu 11:29:27 PM 41.5069 -112.8728 328° Northwest 279 321 20,000  Level Salt Lake Center
Thu 11:30:28 PM 41.5719 -112.9281 328° Northwest 278 320 20,000  Level Salt Lake Center
Thu 11:31:30 PM 41.6383 -112.9844 328° Northwest 280 322 20,000  Level Salt Lake Center
Thu 11:32:31 PM 41.7039 -113.0417 327° Northwest 281 323 20,000  Level Salt Lake Center
Thu 11:33:32 PM 41.7694 -113.0975 328° Northwest 278 320 20,000  Level Salt Lake Center
Thu 11:34:33 PM 41.8489 -113.1669 327° Northwest 283 326 20,000  Level Salt Lake Center
Thu 11:35:35 PM 41.9181 -113.2258 328° Northwest 291 335 20,000  Level Salt Lake Center
Thu 11:36:36 PM 41.9861 -113.2883 326° Northwest 295 339 20,000  Level Salt Lake Center
Thu 11:37:37 PM 42.0564 -113.3489 327° Northwest 299 344 20,000  Level Salt Lake Center
Thu 11:38:38 PM 42.1264 -113.4086 328° Northwest 298 343 20,000  Level Salt Lake Center
Thu 11:39:39 PM 42.1947 -113.4686 327° Northwest 295 339 20,000 -683 Level Salt Lake Center
Thu 11:40:41 PM 42.2653 -113.5308 327° Northwest 301 346 18,600 -1,659 Descending Salt Lake Center
Thu 11:41:42 PM 42.3319 -113.5892 327° Northwest 291 335 16,600 -2,213 Descending Salt Lake Center
Thu 11:42:43 PM 42.3908 -113.6439 326° Northwest 268 308 14,100 -2,262 Descending Salt Lake Center
Thu 11:43:44 PM 42.4503 -113.6950 328° Northwest 256 295 12,000 -1,073 Descending Salt Lake Center
Thu 11:44:46 PM 42.4653 -113.8050 281° West 252 290 11,900 195 Descending Salt Lake Center
Thu 11:45:47 PM 42.4694 -113.9044 273° West 264 304 12,400 787 Climbing Salt Lake Center
Thu 11:46:48 PM 42.4428 -113.9847 246° West 263 303 13,500 984 Climbing Salt Lake Center
Thu 11:47:49 PM 42.3922 -113.9422 148° Southeast 246 283 14,400 1,073 Climbing Salt Lake Center
Thu 11:48:51 PM 42.3550 -113.8731 126° Southeast 233 268 15,700 1,268 Climbing Salt Lake Center
Thu 11:49:52 PM 42.3211 -113.8025 123° Southeast 225 259 17,000 1,082 Climbing Salt Lake Center
Thu 11:50:53 PM 42.2867 -113.7342 124° Southeast 222 255 17,900 492 Climbing Salt Lake Center
Thu 11:51:54 PM 42.2508 -113.6592 123° Southeast 231 266 18,000 49 Climbing Salt Lake Center
Thu 11:52:55 PM 42.2078 -113.5833 127° Southeast 248 285 18,000  Level Salt Lake Center
Thu 11:53:56 PM 42.1578 -113.5044 131° Southeast 268 308 18,000 -49 Level Salt Lake Center
Thu 11:54:58 PM 42.0964 -113.4108 131° Southeast 277 319 17,900  Descending Salt Lake Center
Thu 11:55:59 PM 42.0433 -113.3300 131° Southeast 285 328 18,000 -197 Climbing Salt Lake Center
Thu 11:57:00 PM 41.9956 -113.2422 126° Southeast 289 333 17,500 -541 Descending Salt Lake Center
Thu 11:58:01 PM 41.9475 -113.1522 126° Southeast 294 338 16,900 -590 Descending Salt Lake Center
Thu 11:59:02 PM 41.8983 -113.0619 126° Southeast 301 346 16,300 -639 Descending Salt Lake Center
Fri 12:00:03 AM 41.8489 -112.9739 127° Southeast 297 342 15,600 -639 Descending Salt Lake Center
Fri 12:01:04 AM 41.7997 -112.8869 127° Southeast 296 341 15,000 -590 Descending Salt Lake Center
Fri 12:02:05 AM 41.7503 -112.7997 127° Southeast 295 339 14,400 -488 Descending Salt Lake Center
Fri 12:03:07 AM 41.7008 -112.7122 127° Southeast 295 339 14,000 -224 Descending Salt Lake Center
Fri 12:03:52 AM 41.6594 -112.6350 126° Southeast 284 327 14,000  Level Salt Lake Center
Fri 12:04:08 AM 41.6497 -112.6319 167° South 288 331 14,000  Level Salt Lake Center
Fri 12:04:35 AM 41.6181 -112.5858 133° Southeast 281 323 14,000 -98 Level Salt Lake Center
Fri 12:05:09 AM 41.5897 -112.5647 151° Southeast 284 327 13,900 -400 Descending Salt Lake Center
Fri 12:05:35 AM 41.5597 -112.5164 130° Southeast 288 331 13,600 -689 Descending Salt Lake Center
Fri 12:06:10 AM 41.5194 -112.4756 143° Southeast 290 334 13,200 -590 Descending Salt Lake Center
Fri 12:06:36 AM 41.4981 -112.4400 129° Southeast 299 344 13,000 -492 Descending Salt Lake Center
Fri 12:07:11 AM 41.4572 -112.4000 144° Southeast 301 346 12,700 -590 Descending Salt Lake Center
Fri 12:07:37 AM 41.4322 -112.3650 134° Southeast 294 338 12,400 -689 Descending Salt Lake Center
Fri 12:08:12 AM 41.4017 -112.3322 141° Southeast 273 314 12,000 -1,100 Descending Salt Lake Center
Fri 12:08:37 AM 41.3808 -112.2994 130° Southeast 249 287 11,300 -1,475 Descending Salt Lake Center
Fri 12:09:13 AM 41.3506 -112.2681 142° Southeast 256 295 10,500 -1,180 Descending Salt Lake Center
Fri 12:09:38 AM 41.3281 -112.2375 134° Southeast 256 295 10,100 -492 Descending Salt Lake Center
Fri 12:10:14 AM 41.2983 -112.2047 140° Southeast 254 292 10,000 -98 Descending Salt Lake Center
Fri 12:10:39 AM 41.2772 -112.1747 133° Southeast 247 284 10,000  Level Salt Lake Center
Fri 12:11:15 AM 41.2497 -112.1453 141° Southeast 241 277 10,000 -179 Level Salt Lake Center
Fri 12:11:46 AM 41.2214 -112.1083 136° Southeast 241 277 9,800 -492 Descending Salt Lake Center
Fri 12:12:16 AM 41.1989 -112.0842 141° Southeast 246 283 9,500 -667 Descending Salt Lake Center
Fri 12:12:40 AM 41.1742 -112.0531 137° Southeast 257 296 9,200 -492 Descending Salt Lake Center
Fri 12:13:17 AM 41.1472 -112.0228 140° Southeast 250 288 9,000 -179 Descending Salt Lake Center
Fri 12:13:47 AM 41.1081 -112.0131 169° South 236 272 9,000  Level Salt Lake Center
Fri 12:14:18 AM 41.0842 -112.0114 177° South 235 270 9,000  Level Salt Lake Center
Fri 12:14:48 AM 41.0444 -112.0061 174° South 234 269 9,000 -197 Level Salt Lake Center
Fri 12:15:19 AM 41.0069 -112.0003 173° South 239 275 8,800 -900 Descending Salt Lake Center
Fri 12:15:48 AM 40.9756 -111.9956 174° South 252 290 8,100 -1,524 Descending Salt Lake Center
Fri 12:16:22 AM 40.9389 -111.9925 176° South 249 287 7,200 -1,433 Descending Salt Lake Center
Fri 12:16:55 AM 40.9033 -111.9889 176° South 217 250 6,500 -1,400 Descending Salt Lake Center
Fri 12:17:22 AM 40.8831 -111.9858 174° South 201 231 5,800 -1,082 Descending Salt Lake Center
Fri 12:17:56 AM 40.8547 -111.9828 175° South 158 182 5,400 -787 Descending Salt Lake Center
Fri 12:18:23 AM 40.8389 -111.9808 175° South 162 186 5,000 -889 Descending Salt Lake Center
Fri 12:18:50 AM 40.8197 -111.9806 179° South 129 148 4,600 -787 Descending Salt Lake Center
Fri 12:19:24 AM 40.8036 -111.9756 167° South 130 150 4,200 -706 Descending Salt Lake Center
Fri 12:21:00 AM 40.7833 -111.9667 159° South  Level FlightAware Approximate

Login

Don't have an account? Register now (free) for customized features, flight alerts, and more!